sensor_id;sensor_type;location;lat;lon;timestamp;pressure;altitude;pressure_sealevel;temperature;humidity
7200;BME280;3641;49.082;8.200;2022-12-19T00:00:23;101430.13;;;-3.73;86.19
7200;BME280;3641;49.082;8.200;2022-12-19T00:02:51;101432.91;;;-3.76;88.68
7200;BME280;3641;49.082;8.200;2022-12-19T00:05:17;101421.34;;;-3.77;87.92
7200;BME280;3641;49.082;8.200;2022-12-19T00:07:47;101417.97;;;-3.80;87.17
7200;BME280;3641;49.082;8.200;2022-12-19T00:10:13;101418.34;;;-3.69;87.14
7200;BME280;3641;49.082;8.200;2022-12-19T00:12:40;101411.06;;;-3.66;86.47
7200;BME280;3641;49.082;8.200;2022-12-19T00:15:07;101411.97;;;-3.65;86.82
7200;BME280;3641;49.082;8.200;2022-12-19T00:17:33;101400.84;;;-3.75;87.63
7200;BME280;3641;49.082;8.200;2022-12-19T00:20:01;101399.69;;;-3.69;87.55
7200;BME280;3641;49.082;8.200;2022-12-19T00:22:28;101389.94;;;-3.70;87.59
7200;BME280;3641;49.082;8.200;2022-12-19T00:24:54;101391.75;;;-3.71;87.75
7200;BME280;3641;49.082;8.200;2022-12-19T00:27:21;101394.94;;;-3.62;88.46
7200;BME280;3641;49.082;8.200;2022-12-19T00:29:47;101401.28;;;-3.65;87.87
7200;BME280;3641;49.082;8.200;2022-12-19T00:32:14;101400.13;;;-3.59;87.38
7200;BME280;3641;49.082;8.200;2022-12-19T00:34:40;101398.50;;;-3.62;87.53
7200;BME280;3641;49.082;8.200;2022-12-19T00:37:08;101403.69;;;-3.59;87.30
7200;BME280;3641;49.082;8.200;2022-12-19T00:39:36;101404.09;;;-3.68;87.88
7200;BME280;3641;49.082;8.200;2022-12-19T00:42:02;101400.28;;;-3.62;88.07
7200;BME280;3641;49.082;8.200;2022-12-19T00:44:29;101396.75;;;-3.63;88.22
7200;BME280;3641;49.082;8.200;2022-12-19T00:46:55;101391.78;;;-3.52;87.42
7200;BME280;3641;49.082;8.200;2022-12-19T00:49:22;101383.34;;;-3.61;88.55
7200;BME280;3641;49.082;8.200;2022-12-19T00:51:48;101391.94;;;-3.55;87.61
7200;BME280;3641;49.082;8.200;2022-12-19T00:54:16;101380.97;;;-3.49;86.86
7200;BME280;3641;49.082;8.200;2022-12-19T00:56:42;101378.59;;;-3.55;89.06
7200;BME280;3641;49.082;8.200;2022-12-19T00:59:09;101389.13;;;-3.52;88.99
7200;BME280;3641;49.082;8.200;2022-12-19T01:01:38;101397.06;;;-3.50;89.18
7200;BME280;3641;49.082;8.200;2022-12-19T01:04:06;101392.44;;;-3.47;88.37
7200;BME280;3641;49.082;8.200;2022-12-19T01:06:33;101399.41;;;-3.63;89.49
7200;BME280;3641;49.082;8.200;2022-12-19T01:09:00;101395.97;;;-3.65;90.35
7200;BME280;3641;49.082;8.200;2022-12-19T01:11:27;101390.13;;;-3.54;89.94
7200;BME280;3641;49.082;8.200;2022-12-19T01:14:08;101385.66;;;-3.54;90.05
7200;BME280;3641;49.082;8.200;2022-12-19T01:16:35;101380.97;;;-3.49;90.40
7200;BME280;3641;49.082;8.200;2022-12-19T01:19:01;101372.34;;;-3.35;88.50
7200;BME280;3641;49.082;8.200;2022-12-19T01:21:28;101374.97;;;-3.33;87.85
7200;BME280;3641;49.082;8.200;2022-12-19T01:23:54;101377.63;;;-3.33;89.02
7200;BME280;3641;49.082;8.200;2022-12-19T01:26:21;101380.28;;;-3.33;89.54
7200;BME280;3641;49.082;8.200;2022-12-19T01:28:48;101376.03;;;-3.37;88.80
7200;BME280;3641;49.082;8.200;2022-12-19T01:31:15;101364.22;;;-3.32;87.58
7200;BME280;3641;49.082;8.200;2022-12-19T01:33:41;101351.66;;;-3.30;88.31
7200;BME280;3641;49.082;8.200;2022-12-19T01:36:08;101349.63;;;-3.24;87.01
7200;BME280;3641;49.082;8.200;2022-12-19T01:38:35;101351.34;;;-3.23;88.47
7200;BME280;3641;49.082;8.200;2022-12-19T01:41:02;101344.22;;;-3.23;88.42
7200;BME280;3641;49.082;8.200;2022-12-19T01:43:32;101336.19;;;-3.23;88.50
7200;BME280;3641;49.082;8.200;2022-12-19T01:46:02;101336.97;;;-3.21;88.77
7200;BME280;3641;49.082;8.200;2022-12-19T01:48:31;101334.56;;;-3.25;90.46
7200;BME280;3641;49.082;8.200;2022-12-19T01:51:01;101341.25;;;-3.17;89.01
7200;BME280;3641;49.082;8.200;2022-12-19T01:53:33;101338.09;;;-3.25;88.01
7200;BME280;3641;49.082;8.200;2022-12-19T01:56:02;101329.66;;;-3.16;88.13
7200;BME280;3641;49.082;8.200;2022-12-19T01:58:31;101347.25;;;-3.12;88.63
7200;BME280;3641;49.082;8.200;2022-12-19T02:00:58;101343.63;;;-3.11;87.81
7200;BME280;3641;49.082;8.200;2022-12-19T02:03:28;101340.25;;;-3.14;88.78
7200;BME280;3641;49.082;8.200;2022-12-19T02:05:57;101337.34;;;-3.10;88.12
7200;BME280;3641;49.082;8.200;2022-12-19T02:08:25;101344.13;;;-3.02;87.49
7200;BME280;3641;49.082;8.200;2022-12-19T02:10:53;101328.41;;;-3.08;87.82
7200;BME280;3641;49.082;8.200;2022-12-19T02:13:20;101322.13;;;-3.07;87.93
7200;BME280;3641;49.082;8.200;2022-12-19T02:15:51;101325.50;;;-3.04;88.71
7200;BME280;3641;49.082;8.200;2022-12-19T02:18:29;101323.31;;;-2.96;86.78
7200;BME280;3641;49.082;8.200;2022-12-19T02:21:13;101334.91;;;-2.95;88.02
7200;BME280;3641;49.082;8.200;2022-12-19T02:24:04;101328.66;;;-2.96;87.70
7200;BME280;3641;49.082;8.200;2022-12-19T02:26:56;101338.91;;;-2.86;87.50
7200;BME280;3641;49.082;8.200;2022-12-19T02:29:57;101337.25;;;-2.89;87.41
7200;BME280;3641;49.082;8.200;2022-12-19T02:32:30;101335.53;;;-2.90;87.37
7200;BME280;3641;49.082;8.200;2022-12-19T02:35:03;101336.69;;;-2.96;88.00
7200;BME280;3641;49.082;8.200;2022-12-19T02:37:33;101337.84;;;-2.82;87.00
7200;BME280;3641;49.082;8.200;2022-12-19T02:40:05;101334.84;;;-2.76;86.82
7200;BME280;3641;49.082;8.200;2022-12-19T02:42:35;101336.59;;;-2.75;87.07
7200;BME280;3641;49.082;8.200;2022-12-19T02:45:04;101343.19;;;-2.82;87.28
7200;BME280;3641;49.082;8.200;2022-12-19T02:47:34;101337.41;;;-2.92;88.89
7200;BME280;3641;49.082;8.200;2022-12-19T02:50:02;101340.00;;;-2.90;89.69
7200;BME280;3641;49.082;8.200;2022-12-19T02:52:46;101335.16;;;-2.82;86.90
7200;BME280;3641;49.082;8.200;2022-12-19T02:55:16;101330.53;;;-2.79;87.09
7200;BME280;3641;49.082;8.200;2022-12-19T03:00:38;101337.09;;;-2.86;88.65
7200;BME280;3641;49.082;8.200;2022-12-19T03:03:18;101344.75;;;-2.78;88.31
7200;BME280;3641;49.082;8.200;2022-12-19T03:05:53;101338.69;;;-2.82;89.33
7200;BME280;3641;49.082;8.200;2022-12-19T03:08:25;101339.19;;;-2.74;87.93
7200;BME280;3641;49.082;8.200;2022-12-19T03:10:56;101334.22;;;-2.81;88.93
7200;BME280;3641;49.082;8.200;2022-12-19T03:13:26;101333.56;;;-2.86;88.93
7200;BME280;3641;49.082;8.200;2022-12-19T03:15:56;101325.28;;;-2.99;90.57
7200;BME280;3641;49.082;8.200;2022-12-19T03:18:25;101333.50;;;-2.85;89.79
7200;BME280;3641;49.082;8.200;2022-12-19T03:20:54;101331.69;;;-2.84;88.99
7200;BME280;3641;49.082;8.200;2022-12-19T03:23:26;101331.38;;;-2.78;88.86
7200;BME280;3641;49.082;8.200;2022-12-19T03:25:55;101335.03;;;-2.79;88.78
7200;BME280;3641;49.082;8.200;2022-12-19T03:28:26;101334.72;;;-2.92;90.59
7200;BME280;3641;49.082;8.200;2022-12-19T03:30:57;101339.41;;;-2.78;90.48
7200;BME280;3641;49.082;8.200;2022-12-19T03:33:28;101332.25;;;-2.78;89.48
7200;BME280;3641;49.082;8.200;2022-12-19T03:35:57;101326.69;;;-2.73;89.38
7200;BME280;3641;49.082;8.200;2022-12-19T03:38:26;101324.97;;;-2.74;89.16
7200;BME280;3641;49.082;8.200;2022-12-19T03:40:54;101321.09;;;-2.68;88.81
7200;BME280;3641;49.082;8.200;2022-12-19T03:43:23;101323.47;;;-2.62;88.39
7200;BME280;3641;49.082;8.200;2022-12-19T03:45:54;101319.81;;;-2.60;87.38
7200;BME280;3641;49.082;8.200;2022-12-19T03:48:27;101323.41;;;-2.61;88.66
7200;BME280;3641;49.082;8.200;2022-12-19T03:51:02;101329.78;;;-2.63;88.23
7200;BME280;3641;49.082;8.200;2022-12-19T03:53:40;101320.66;;;-2.59;87.34
7200;BME280;3641;49.082;8.200;2022-12-19T03:56:12;101312.41;;;-2.54;87.41
7200;BME280;3641;49.082;8.200;2022-12-19T03:58:46;101317.75;;;-2.54;87.56
7200;BME280;3641;49.082;8.200;2022-12-19T04:01:14;101320.03;;;-2.64;89.35
7200;BME280;3641;49.082;8.200;2022-12-19T04:03:42;101328.59;;;-2.58;88.27
7200;BME280;3641;49.082;8.200;2022-12-19T04:06:10;101324.66;;;-2.68;89.42
7200;BME280;3641;49.082;8.200;2022-12-19T04:08:38;101333.25;;;-2.61;88.74
7200;BME280;3641;49.082;8.200;2022-12-19T04:11:09;101331.44;;;-2.61;88.22
7200;BME280;3641;49.082;8.200;2022-12-19T04:13:42;101320.44;;;-2.54;87.54
7200;BME280;3641;49.082;8.200;2022-12-19T04:16:14;101333.78;;;-2.54;88.01
7200;BME280;3641;49.082;8.200;2022-12-19T04:18:47;101324.13;;;-2.57;87.86
7200;BME280;3641;49.082;8.200;2022-12-19T04:21:18;101333.25;;;-2.61;89.50
7200;BME280;3641;49.082;8.200;2022-12-19T04:23:51;101327.91;;;-2.61;88.45
7200;BME280;3641;49.082;8.200;2022-12-19T04:26:20;101337.25;;;-2.52;88.38
7200;BME280;3641;49.082;8.200;2022-12-19T04:28:49;101331.97;;;-2.54;89.06
7200;BME280;3641;49.082;8.200;2022-12-19T04:31:18;101329.06;;;-2.49;87.77
7200;BME280;3641;49.082;8.200;2022-12-19T04:33:47;101324.69;;;-2.50;87.99
7200;BME280;3641;49.082;8.200;2022-12-19T04:36:14;101324.69;;;-2.50;88.46
7200;BME280;3641;49.082;8.200;2022-12-19T04:38:41;101334.28;;;-2.46;88.53
7200;BME280;3641;49.082;8.200;2022-12-19T04:41:07;101324.50;;;-2.47;87.83
7200;BME280;3641;49.082;8.200;2022-12-19T04:43:33;101328.00;;;-2.45;87.92
7200;BME280;3641;49.082;8.200;2022-12-19T04:46:00;101313.50;;;-2.41;87.89
7200;BME280;3641;49.082;8.200;2022-12-19T04:48:27;101321.75;;;-2.46;87.58
7200;BME280;3641;49.082;8.200;2022-12-19T04:50:55;101304.78;;;-2.45;88.52
7200;BME280;3641;49.082;8.200;2022-12-19T04:53:23;101305.78;;;-2.47;88.59
7200;BME280;3641;49.082;8.200;2022-12-19T04:55:49;101299.75;;;-2.51;89.20
7200;BME280;3641;49.082;8.200;2022-12-19T04:58:16;101290.88;;;-2.51;89.63
7200;BME280;3641;49.082;8.200;2022-12-19T05:00:42;101301.41;;;-2.48;89.18
7200;BME280;3641;49.082;8.200;2022-12-19T05:03:09;101287.34;;;-2.52;90.12
7200;BME280;3641;49.082;8.200;2022-12-19T05:05:35;101286.22;;;-2.48;89.56
7200;BME280;3641;49.082;8.200;2022-12-19T05:08:03;101278.84;;;-2.43;88.66
7200;BME280;3641;49.082;8.200;2022-12-19T05:10:30;101279.19;;;-2.49;90.02
7200;BME280;3641;49.082;8.200;2022-12-19T05:12:56;101288.44;;;-2.39;89.02
7200;BME280;3641;49.082;8.200;2022-12-19T05:15:23;101277.34;;;-2.48;90.69
7200;BME280;3641;49.082;8.200;2022-12-19T05:17:49;101281.03;;;-2.51;90.37
7200;BME280;3641;49.082;8.200;2022-12-19T05:20:16;101277.97;;;-2.43;90.00
7200;BME280;3641;49.082;8.200;2022-12-19T05:22:43;101275.06;;;-2.39;88.77
7200;BME280;3641;49.082;8.200;2022-12-19T05:25:10;101284.53;;;-2.49;90.33
7200;BME280;3641;49.082;8.200;2022-12-19T05:27:37;101283.16;;;-2.40;89.78
7200;BME280;3641;49.082;8.200;2022-12-19T05:30:04;101279.72;;;-2.42;89.03
7200;BME280;3641;49.082;8.200;2022-12-19T05:32:31;101272.25;;;-2.35;89.07
7200;BME280;3641;49.082;8.200;2022-12-19T05:34:59;101286.47;;;-2.35;88.72
7200;BME280;3641;49.082;8.200;2022-12-19T05:37:25;101292.28;;;-2.27;88.37
7200;BME280;3641;49.082;8.200;2022-12-19T05:39:52;101290.72;;;-2.31;88.32
7200;BME280;3641;49.082;8.200;2022-12-19T05:42:19;101286.22;;;-2.30;88.54
7200;BME280;3641;49.082;8.200;2022-12-19T05:44:46;101291.72;;;-2.33;88.29
7200;BME280;3641;49.082;8.200;2022-12-19T05:47:12;101294.25;;;-2.30;88.11
7200;BME280;3641;49.082;8.200;2022-12-19T05:49:39;101283.78;;;-2.35;88.74
7200;BME280;3641;49.082;8.200;2022-12-19T05:52:05;101278.22;;;-2.30;89.32
7200;BME280;3641;49.082;8.200;2022-12-19T05:54:32;101280.97;;;-2.32;89.04
7200;BME280;3641;49.082;8.200;2022-12-19T05:56:58;101272.00;;;-2.31;88.87
7200;BME280;3641;49.082;8.200;2022-12-19T05:59:27;101270.19;;;-2.30;88.58
7200;BME280;3641;49.082;8.200;2022-12-19T06:01:53;101279.06;;;-2.30;88.34
7200;BME280;3641;49.082;8.200;2022-12-19T06:04:19;101274.53;;;-2.28;88.56
7200;BME280;3641;49.082;8.200;2022-12-19T06:06:46;101275.47;;;-2.29;88.82
7200;BME280;3641;49.082;8.200;2022-12-19T06:09:12;101274.22;;;-2.39;90.47
7200;BME280;3641;49.082;8.200;2022-12-19T06:11:39;101284.19;;;-2.43;91.28
7200;BME280;3641;49.082;8.200;2022-12-19T06:14:05;101277.28;;;-2.47;91.12
7200;BME280;3641;49.082;8.200;2022-12-19T06:16:33;101280.09;;;-2.32;89.09
7200;BME280;3641;49.082;8.200;2022-12-19T06:18:59;101281.81;;;-2.31;88.97
7200;BME280;3641;49.082;8.200;2022-12-19T06:21:26;101295.03;;;-2.28;88.76
7200;BME280;3641;49.082;8.200;2022-12-19T06:23:53;101284.19;;;-2.25;88.49
7200;BME280;3641;49.082;8.200;2022-12-19T06:26:20;101284.91;;;-2.22;88.08
7200;BME280;3641;49.082;8.200;2022-12-19T06:28:48;101283.09;;;-2.21;89.43
7200;BME280;3641;49.082;8.200;2022-12-19T06:31:16;101273.63;;;-2.28;91.36
7200;BME280;3641;49.082;8.200;2022-12-19T06:33:44;101271.47;;;-2.20;89.14
7200;BME280;3641;49.082;8.200;2022-12-19T06:36:13;101278.44;;;-2.17;88.30
7200;BME280;3641;49.082;8.200;2022-12-19T06:38:40;101288.97;;;-2.14;88.44
7200;BME280;3641;49.082;8.200;2022-12-19T06:41:08;101275.84;;;-2.19;88.65
7200;BME280;3641;49.082;8.200;2022-12-19T06:43:56;101262.53;;;-2.21;89.40
7200;BME280;3641;49.082;8.200;2022-12-19T06:46:23;101262.31;;;-2.16;89.15
7200;BME280;3641;49.082;8.200;2022-12-19T06:48:51;101265.97;;;-2.34;92.46
7200;BME280;3641;49.082;8.200;2022-12-19T06:51:18;101271.78;;;-2.26;90.43
7200;BME280;3641;49.082;8.200;2022-12-19T06:53:44;101270.50;;;-2.19;90.09
7200;BME280;3641;49.082;8.200;2022-12-19T06:56:12;101270.50;;;-2.19;89.71
7200;BME280;3641;49.082;8.200;2022-12-19T06:58:39;101269.47;;;-2.16;89.68
7200;BME280;3641;49.082;8.200;2022-12-19T07:01:05;101264.28;;;-2.20;90.78
7200;BME280;3641;49.082;8.200;2022-12-19T07:03:35;101265.84;;;-2.15;89.97
7200;BME280;3641;49.082;8.200;2022-12-19T07:06:06;101262.22;;;-2.14;89.85
7200;BME280;3641;49.082;8.200;2022-12-19T07:08:32;101257.81;;;-2.15;90.15
7200;BME280;3641;49.082;8.200;2022-12-19T07:10:59;101242.97;;;-2.21;90.83
7200;BME280;3641;49.082;8.200;2022-12-19T07:13:25;101242.72;;;-2.16;90.89
7200;BME280;3641;49.082;8.200;2022-12-19T07:15:53;101254.75;;;-2.25;91.59
7200;BME280;3641;49.082;8.200;2022-12-19T07:18:25;101258.34;;;-2.42;93.27
7200;BME280;3641;49.082;8.200;2022-12-19T07:20:52;101264.91;;;-2.32;91.74
7200;BME280;3641;49.082;8.200;2022-12-19T07:23:20;101259.00;;;-2.21;91.21
7200;BME280;3641;49.082;8.200;2022-12-19T07:25:47;101260.63;;;-2.34;94.54
7200;BME280;3641;49.082;8.200;2022-12-19T07:28:14;101261.16;;;-2.45;94.79
7200;BME280;3641;49.082;8.200;2022-12-19T07:30:41;101255.06;;;-2.31;94.15
7200;BME280;3641;49.082;8.200;2022-12-19T07:33:08;101264.69;;;-2.27;93.17
7200;BME280;3641;49.082;8.200;2022-12-19T07:35:34;101270.16;;;-2.13;91.79
7200;BME280;3641;49.082;8.200;2022-12-19T07:38:01;101277.13;;;-2.26;92.84
7200;BME280;3641;49.082;8.200;2022-12-19T07:40:32;101284.97;;;-2.23;91.82
7200;BME280;3641;49.082;8.200;2022-12-19T07:42:58;101285.97;;;-2.08;90.95
7200;BME280;3641;49.082;8.200;2022-12-19T07:45:25;101289.28;;;-2.03;91.25
7200;BME280;3641;49.082;8.200;2022-12-19T07:47:52;101287.47;;;-2.03;89.92
7200;BME280;3641;49.082;8.200;2022-12-19T07:50:18;101285.50;;;-1.99;89.94
7200;BME280;3641;49.082;8.200;2022-12-19T07:52:45;101286.88;;;-1.92;89.49
7200;BME280;3641;49.082;8.200;2022-12-19T07:55:11;101290.69;;;-1.96;90.05
7200;BME280;3641;49.082;8.200;2022-12-19T07:57:39;101298.63;;;-1.94;89.72
7200;BME280;3641;49.082;8.200;2022-12-19T08:00:07;101301.06;;;-1.90;89.37
7200;BME280;3641;49.082;8.200;2022-12-19T08:02:34;101294.91;;;-1.92;89.54
7200;BME280;3641;49.082;8.200;2022-12-19T08:05:01;101290.44;;;-1.91;89.94
7200;BME280;3641;49.082;8.200;2022-12-19T08:07:28;101279.66;;;-1.90;89.66
7200;BME280;3641;49.082;8.200;2022-12-19T08:09:54;101281.44;;;-1.90;89.13
7200;BME280;3641;49.082;8.200;2022-12-19T08:12:21;101286.19;;;-1.95;90.03
7200;BME280;3641;49.082;8.200;2022-12-19T08:14:49;101283.19;;;-1.89;89.50
7200;BME280;3641;49.082;8.200;2022-12-19T08:17:15;101287.84;;;-1.93;90.21
7200;BME280;3641;49.082;8.200;2022-12-19T08:19:42;101283.59;;;-1.97;91.00
7200;BME280;3641;49.082;8.200;2022-12-19T08:22:08;101280.53;;;-1.89;90.32
7200;BME280;3641;49.082;8.200;2022-12-19T08:24:34;101278.00;;;-1.92;90.42
7200;BME280;3641;49.082;8.200;2022-12-19T08:27:01;101286.47;;;-1.84;90.39
7200;BME280;3641;49.082;8.200;2022-12-19T08:29:28;101275.69;;;-1.83;89.99
7200;BME280;3641;49.082;8.200;2022-12-19T08:31:55;101276.72;;;-1.85;90.57
7200;BME280;3641;49.082;8.200;2022-12-19T08:34:22;101282.66;;;-1.96;93.24
7200;BME280;3641;49.082;8.200;2022-12-19T08:36:48;101280.94;;;-1.97;92.63
7200;BME280;3641;49.082;8.200;2022-12-19T08:39:15;101278.56;;;-2.03;95.01
7200;BME280;3641;49.082;8.200;2022-12-19T08:41:41;101274.59;;;-2.12;95.45
7200;BME280;3641;49.082;8.200;2022-12-19T08:44:09;101276.59;;;-1.99;93.14
7200;BME280;3641;49.082;8.200;2022-12-19T08:46:36;101272.50;;;-1.89;91.97
7200;BME280;3641;49.082;8.200;2022-12-19T08:49:04;101266.81;;;-1.83;91.76
7200;BME280;3641;49.082;8.200;2022-12-19T08:51:30;101263.81;;;-1.77;90.39
7200;BME280;3641;49.082;8.200;2022-12-19T08:53:57;101254.97;;;-1.79;90.79
7200;BME280;3641;49.082;8.200;2022-12-19T08:56:23;101252.13;;;-1.76;90.67
7200;BME280;3641;49.082;8.200;2022-12-19T08:58:50;101255.63;;;-1.74;91.06
7200;BME280;3641;49.082;8.200;2022-12-19T09:01:19;101244.28;;;-1.79;90.99
7200;BME280;3641;49.082;8.200;2022-12-19T09:03:48;101242.56;;;-1.80;91.02
7200;BME280;3641;49.082;8.200;2022-12-19T09:06:16;101250.59;;;-1.80;91.16
7200;BME280;3641;49.082;8.200;2022-12-19T09:08:42;101243.41;;;-1.79;91.69
7200;BME280;3641;49.082;8.200;2022-12-19T09:11:11;101245.94;;;-1.76;90.81
7200;BME280;3641;49.082;8.200;2022-12-19T09:13:39;101239.72;;;-1.77;91.26
7200;BME280;3641;49.082;8.200;2022-12-19T09:16:09;101245.00;;;-1.75;92.21
7200;BME280;3641;49.082;8.200;2022-12-19T09:18:36;101249.28;;;-1.73;91.83
7200;BME280;3641;49.082;8.200;2022-12-19T09:21:03;101242.66;;;-1.81;93.78
7200;BME280;3641;49.082;8.200;2022-12-19T09:23:31;101229.97;;;-1.78;92.59
7200;BME280;3641;49.082;8.200;2022-12-19T09:26:01;101227.28;;;-1.78;93.98
7200;BME280;3641;49.082;8.200;2022-12-19T09:28:28;101223.50;;;-1.74;92.21
7200;BME280;3641;49.082;8.200;2022-12-19T09:30:55;101222.44;;;-1.71;91.82
7200;BME280;3641;49.082;8.200;2022-12-19T09:33:21;101234.81;;;-1.69;91.80
7200;BME280;3641;49.082;8.200;2022-12-19T09:35:49;101233.75;;;-1.66;91.40
7200;BME280;3641;49.082;8.200;2022-12-19T09:38:16;101229.28;;;-1.66;91.64
7200;BME280;3641;49.082;8.200;2022-12-19T09:40:52;101221.34;;;-1.67;91.86
7200;BME280;3641;49.082;8.200;2022-12-19T09:43:32;101226.44;;;-1.62;91.64
7200;BME280;3641;49.082;8.200;2022-12-19T09:46:10;101230.84;;;-1.61;91.84
7200;BME280;3641;49.082;8.200;2022-12-19T09:48:41;101223.59;;;-1.59;92.06
7200;BME280;3641;49.082;8.200;2022-12-19T09:51:10;101227.06;;;-1.57;91.75
7200;BME280;3641;49.082;8.200;2022-12-19T09:53:47;101220.84;;;-1.58;92.20
7200;BME280;3641;49.082;8.200;2022-12-19T09:56:19;101211.50;;;-1.51;91.96
7200;BME280;3641;49.082;8.200;2022-12-19T09:58:48;101205.03;;;-1.47;91.83
7200;BME280;3641;49.082;8.200;2022-12-19T10:01:20;101202.28;;;-1.45;91.70
7200;BME280;3641;49.082;8.200;2022-12-19T10:03:53;101199.41;;;-1.42;91.82
7200;BME280;3641;49.082;8.200;2022-12-19T10:06:24;101207.47;;;-1.42;92.88
7200;BME280;3641;49.082;8.200;2022-12-19T10:08:51;101209.16;;;-1.41;92.09
7200;BME280;3641;49.082;8.200;2022-12-19T10:11:31;101201.91;;;-1.39;92.53
7200;BME280;3641;49.082;8.200;2022-12-19T10:14:13;101192.84;;;-1.36;92.16
7200;BME280;3641;49.082;8.200;2022-12-19T10:16:50;101203.63;;;-1.38;92.47
7200;BME280;3641;49.082;8.200;2022-12-19T10:19:32;101203.53;;;-1.36;92.75
7200;BME280;3641;49.082;8.200;2022-12-19T10:22:08;101194.66;;;-1.37;92.92
7200;BME280;3641;49.082;8.200;2022-12-19T10:24:51;101192.56;;;-1.32;92.27
7200;BME280;3641;49.082;8.200;2022-12-19T10:27:29;101197.06;;;-1.32;93.15
7200;BME280;3641;49.082;8.200;2022-12-19T10:30:06;101191.47;;;-1.27;92.66
7200;BME280;3641;49.082;8.200;2022-12-19T10:32:40;101188.41;;;-1.21;92.79
7200;BME280;3641;49.082;8.200;2022-12-19T10:35:12;101186.69;;;-1.22;92.85
7200;BME280;3641;49.082;8.200;2022-12-19T10:37:44;101188.31;;;-1.20;92.96
7200;BME280;3641;49.082;8.200;2022-12-19T10:40:16;101192.72;;;-1.19;93.14
7200;BME280;3641;49.082;8.200;2022-12-19T10:42:50;101190.72;;;-1.15;92.53
7200;BME280;3641;49.082;8.200;2022-12-19T10:45:19;101187.03;;;-1.13;92.64
7200;BME280;3641;49.082;8.200;2022-12-19T10:47:49;101191.44;;;-1.12;92.60
7200;BME280;3641;49.082;8.200;2022-12-19T10:50:21;101183.22;;;-1.08;92.49
7200;BME280;3641;49.082;8.200;2022-12-19T10:52:51;101180.53;;;-1.08;92.49
7200;BME280;3641;49.082;8.200;2022-12-19T10:55:29;101171.63;;;-1.09;93.10
7200;BME280;3641;49.082;8.200;2022-12-19T10:57:59;101167.03;;;-1.07;92.79
7200;BME280;3641;49.082;8.200;2022-12-19T11:00:35;101168.00;;;-1.08;93.14
7200;BME280;3641;49.082;8.200;2022-12-19T11:03:11;101163.50;;;-1.07;93.24
7200;BME280;3641;49.082;8.200;2022-12-19T11:05:42;101154.53;;;-1.06;93.18
7200;BME280;3641;49.082;8.200;2022-12-19T11:08:15;101148.88;;;-1.02;93.04
7200;BME280;3641;49.082;8.200;2022-12-19T11:10:44;101149.75;;;-1.01;93.25
7200;BME280;3641;49.082;8.200;2022-12-19T11:13:19;101161.41;;;-1.02;92.81
7200;BME280;3641;49.082;8.200;2022-12-19T11:15:47;101151.75;;;-1.05;93.70
7200;BME280;3641;49.082;8.200;2022-12-19T11:18:13;101150.00;;;-1.06;93.66
7200;BME280;3641;49.082;8.200;2022-12-19T11:20:52;101151.56;;;-1.02;93.96
7200;BME280;3641;49.082;8.200;2022-12-19T11:23:19;101144.13;;;-0.97;93.01
7200;BME280;3641;49.082;8.200;2022-12-19T11:25:53;101138.16;;;-1.02;93.49
7200;BME280;3641;49.082;8.200;2022-12-19T11:28:24;101130.13;;;-1.02;94.64
7200;BME280;3641;49.082;8.200;2022-12-19T11:30:59;101122.69;;;-0.97;94.06
7200;BME280;3641;49.082;8.200;2022-12-19T11:33:27;101118.06;;;-0.95;94.29
7200;BME280;3641;49.082;8.200;2022-12-19T11:35:56;101117.31;;;-0.97;94.14
7200;BME280;3641;49.082;8.200;2022-12-19T11:38:31;101126.28;;;-0.98;94.03
7200;BME280;3641;49.082;8.200;2022-12-19T11:41:04;101115.31;;;-0.93;94.21
7200;BME280;3641;49.082;8.200;2022-12-19T11:43:40;101104.13;;;-0.85;93.78
7200;BME280;3641;49.082;8.200;2022-12-19T11:46:16;101103.38;;;-0.87;94.66
7200;BME280;3641;49.082;8.200;2022-12-19T11:48:47;101101.44;;;-0.85;94.70
7200;BME280;3641;49.082;8.200;2022-12-19T11:51:20;101085.28;;;-0.84;94.51
7200;BME280;3641;49.082;8.200;2022-12-19T11:53:55;101097.72;;;-0.83;94.04
7200;BME280;3641;49.082;8.200;2022-12-19T11:56:27;101085.19;;;-0.82;94.56
7200;BME280;3641;49.082;8.200;2022-12-19T11:58:59;101101.25;;;-0.82;95.17
7200;BME280;3641;49.082;8.200;2022-12-19T12:01:40;101086.13;;;-0.83;96.03
7200;BME280;3641;49.082;8.200;2022-12-19T12:04:37;101081.56;;;-0.81;96.42
7200;BME280;3641;49.082;8.200;2022-12-19T12:07:08;101081.56;;;-0.81;97.01
7200;BME280;3641;49.082;8.200;2022-12-19T12:09:37;101091.22;;;-0.79;97.01
7200;BME280;3641;49.082;8.200;2022-12-19T12:12:16;101071.22;;;-0.73;97.80
7200;BME280;3641;49.082;8.200;2022-12-19T12:15:02;101079.25;;;-0.73;98.12
7200;BME280;3641;49.082;8.200;2022-12-19T12:17:43;101082.59;;;-0.69;96.87
7200;BME280;3641;49.082;8.200;2022-12-19T12:20:20;101086.94;;;-0.67;98.27
7200;BME280;3641;49.082;8.200;2022-12-19T12:23:01;101076.88;;;-0.63;97.18
7200;BME280;3641;49.082;8.200;2022-12-19T12:25:43;101068.81;;;-0.63;97.57
7200;BME280;3641;49.082;8.200;2022-12-19T12:28:24;101055.13;;;-0.59;99.50
7200;BME280;3641;49.082;8.200;2022-12-19T12:31:07;101055.91;;;-0.57;97.93
7200;BME280;3641;49.082;8.200;2022-12-19T12:33:51;101064.31;;;-0.48;100.00
7200;BME280;3641;49.082;8.200;2022-12-19T12:36:26;101066.34;;;-0.52;100.00
7200;BME280;3641;49.082;8.200;2022-12-19T12:39:02;101063.75;;;-0.53;100.00
7200;BME280;3641;49.082;8.200;2022-12-19T12:41:39;101067.97;;;-0.49;100.00
7200;BME280;3641;49.082;8.200;2022-12-19T12:44:27;101058.94;;;-0.48;100.00
7200;BME280;3641;49.082;8.200;2022-12-19T12:47:01;101064.03;;;-0.44;98.44
7200;BME280;3641;49.082;8.200;2022-12-19T12:49:36;101067.38;;;-0.40;100.00
7200;BME280;3641;49.082;8.200;2022-12-19T12:52:06;101065.47;;;-0.38;99.48
7200;BME280;3641;49.082;8.200;2022-12-19T12:54:35;101066.53;;;-0.41;99.50
7200;BME280;3641;49.082;8.200;2022-12-19T12:57:03;101067.47;;;-0.42;99.18
7200;BME280;3641;49.082;8.200;2022-12-19T12:59:30;101069.19;;;-0.41;98.17
7200;BME280;3641;49.082;8.200;2022-12-19T13:01:59;101061.81;;;-0.37;98.37
7200;BME280;3641;49.082;8.200;2022-12-19T13:04:30;101055.50;;;-0.36;98.69
7200;BME280;3641;49.082;8.200;2022-12-19T13:09:54;101050.69;;;-0.31;98.67
7200;BME280;3641;49.082;8.200;2022-12-19T13:12:30;101049.66;;;-0.28;99.13
7200;BME280;3641;49.082;8.200;2022-12-19T13:15:30;101052.34;;;-0.28;99.70
7200;BME280;3641;49.082;8.200;2022-12-19T13:21:06;101053.94;;;-0.26;99.36
7200;BME280;3641;49.082;8.200;2022-12-19T13:26:45;101065.06;;;-0.17;98.44
7200;BME280;3641;49.082;8.200;2022-12-19T13:30:03;101078.59;;;-0.19;98.34
7200;BME280;3641;49.082;8.200;2022-12-19T13:32:32;101065.94;;;-0.17;98.46
7200;BME280;3641;49.082;8.200;2022-12-19T13:35:33;101064.28;;;-0.20;97.90
7200;BME280;3641;49.082;8.200;2022-12-19T13:38:15;101054.44;;;-0.19;98.25